createdAt,value
2018-03-24T00:00:38.750Z,26.77
2018-03-24T00:03:06.941Z,29.77
2018-03-24T00:05:35.831Z,24.40
2018-03-24T00:08:04.811Z,23.27
2018-03-24T00:10:32.921Z,23.13
2018-03-24T00:13:01.091Z,24.33
2018-03-24T00:15:29.322Z,27.80
2018-03-24T00:17:57.441Z,28.00
2018-03-24T00:20:25.583Z,30.40
2018-03-24T00:22:53.752Z,29.53
2018-03-24T00:25:21.861Z,24.50
2018-03-24T00:27:50.835Z,23.70
2018-03-24T00:30:18.952Z,25.40
2018-03-24T00:32:47.110Z,31.13
2018-03-24T00:35:15.285Z,31.00
2018-03-24T00:37:43.450Z,25.10
2018-03-24T00:40:11.748Z,23.13
2018-03-24T00:42:39.866Z,24.27
2018-03-24T00:45:08.821Z,23.30
2018-03-24T00:47:36.970Z,24.13
2018-03-24T00:50:05.827Z,24.53
2018-03-24T00:52:34.029Z,24.73
2018-03-24T00:55:02.098Z,25.97
2018-03-24T00:57:30.283Z,24.87
2018-03-24T00:59:58.407Z,25.63
2018-03-24T01:02:27.340Z,25.83
2018-03-24T01:04:55.478Z,24.90
2018-03-24T01:07:23.652Z,23.07
2018-03-24T01:09:51.873Z,52.03
2018-03-24T01:12:20.008Z,25.37
2018-03-24T01:14:48.148Z,23.80
2018-03-24T01:17:17.062Z,23.70
2018-03-24T01:19:45.335Z,23.30
2018-03-24T01:22:13.447Z,22.60
2018-03-24T01:24:41.624Z,22.43
2018-03-24T01:27:09.752Z,24.13
2018-03-24T01:29:37.964Z,22.33
2018-03-24T01:32:06.113Z,21.23
2018-03-24T01:34:34.266Z,22.87
2018-03-24T01:37:02.642Z,22.10
2018-03-24T01:39:30.872Z,22.47
2018-03-24T01:41:59.048Z,21.07
2018-03-24T01:44:27.272Z,22.60
2018-03-24T01:46:55.384Z,21.87
2018-03-24T01:49:24.294Z,19.93
2018-03-24T01:51:53.208Z,21.00
2018-03-24T01:54:21.367Z,20.33
2018-03-24T01:56:49.583Z,19.27
2018-03-24T01:59:18.519Z,19.23
2018-03-24T02:01:46.703Z,20.07
2018-03-24T02:04:14.837Z,21.53
2018-03-24T02:06:43.721Z,20.73
2018-03-24T02:09:11.827Z,22.10
2018-03-24T02:11:40.806Z,20.07
2018-03-24T02:14:09.034Z,20.67
2018-03-24T02:16:37.972Z,20.33
2018-03-24T02:19:06.121Z,21.10
2018-03-24T02:21:35.097Z,24.50
2018-03-24T02:24:03.249Z,24.27
2018-03-24T02:26:31.402Z,21.87
2018-03-24T02:29:00.345Z,22.73
2018-03-24T02:31:28.543Z,21.30
2018-03-24T02:33:56.691Z,21.67
2018-03-24T02:36:25.010Z,20.90
2018-03-24T02:38:53.135Z,21.00
2018-03-24T02:41:21.292Z,20.23
2018-03-24T02:43:49.417Z,20.20
2018-03-24T02:46:18.343Z,20.80
2018-03-24T02:48:46.544Z,20.17
2018-03-24T02:51:14.688Z,19.50
2018-03-24T02:53:43.629Z,18.97
2018-03-24T02:56:11.798Z,19.23
2018-03-24T02:58:40.718Z,24.27
2018-03-24T03:01:08.824Z,20.87
2018-03-24T03:03:37.000Z,20.17
2018-03-24T03:06:05.162Z,20.03
2018-03-24T03:08:33.338Z,20.83
2018-03-24T03:11:01.438Z,20.40
2018-03-24T03:13:29.614Z,21.10
2018-03-24T03:15:58.539Z,21.43
2018-03-24T03:18:26.658Z,30.70
2018-03-24T03:20:54.814Z,25.97
2018-03-24T03:23:22.937Z,29.30
2018-03-24T03:25:51.040Z,29.30
2018-03-24T03:28:19.964Z,26.77
2018-03-24T03:30:49.042Z,30.33
2018-03-24T03:33:17.166Z,27.40
2018-03-24T03:35:45.308Z,26.20
2018-03-24T03:38:14.214Z,26.20
2018-03-24T03:40:42.383Z,27.47
2018-03-24T03:43:10.538Z,25.73
2018-03-24T03:45:38.677Z,24.90
2018-03-24T03:48:07.588Z,33.57
2018-03-24T03:50:36.514Z,28.43
2018-03-24T03:53:04.664Z,31.63
2018-03-24T03:55:32.785Z,35.13
2018-03-24T03:58:00.928Z,25.57
2018-03-24T04:00:29.911Z,25.90
2018-03-24T04:02:58.038Z,24.77
2018-03-24T04:05:26.926Z,25.27
2018-03-24T04:07:55.132Z,28.00
2018-03-24T04:10:24.034Z,23.63
2018-03-24T04:12:52.957Z,23.30
2018-03-24T04:15:21.088Z,27.13
2018-03-24T04:17:49.189Z,24.57
2018-03-24T04:20:17.392Z,23.07
2018-03-24T04:22:45.502Z,26.10
2018-03-24T04:25:13.645Z,28.60
2018-03-24T04:27:42.241Z,25.17
2018-03-24T04:30:10.424Z,27.03
2018-03-24T04:32:38.560Z,24.33
2018-03-24T04:35:07.485Z,26.73
2018-03-24T04:37:35.606Z,25.80
2018-03-24T04:40:03.728Z,24.70
2018-03-24T04:42:31.825Z,24.40
2018-03-24T04:44:59.972Z,26.07
2018-03-24T04:47:28.160Z,30.73
2018-03-24T04:49:56.294Z,24.20
2018-03-24T04:52:24.435Z,33.40
2018-03-24T04:54:52.612Z,27.90
2018-03-24T04:57:20.715Z,35.23
2018-03-24T04:59:48.848Z,29.20
2018-03-24T05:02:17.027Z,29.07
2018-03-24T05:04:45.153Z,27.40
2018-03-24T05:07:13.343Z,24.67
2018-03-24T05:09:42.980Z,39.57
2018-03-24T05:12:11.128Z,30.57
2018-03-24T05:14:39.378Z,30.23
2018-03-24T05:17:07.542Z,29.43
2018-03-24T05:19:36.438Z,38.00
2018-03-24T05:22:04.590Z,42.03
2018-03-24T05:24:32.707Z,30.40
2018-03-24T05:27:01.616Z,26.87
2018-03-24T05:29:30.555Z,25.13
2018-03-24T05:31:58.704Z,32.77
2018-03-24T05:34:27.202Z,42.00
2018-03-24T05:36:56.149Z,39.40
2018-03-24T05:39:24.321Z,31.07
2018-03-24T05:41:52.484Z,40.00
2018-03-24T05:44:21.390Z,32.40
2018-03-24T05:46:49.579Z,43.13
2018-03-24T05:49:18.514Z,27.17
2018-03-24T05:51:46.732Z,33.03
2018-03-24T05:54:15.775Z,28.30
2018-03-24T05:56:44.689Z,47.87
2018-03-24T05:59:12.883Z,41.03
2018-03-24T06:01:40.995Z,30.77
2018-03-24T06:04:09.139Z,29.03
2018-03-24T06:06:37.301Z,34.63
2018-03-24T06:09:05.448Z,36.07
2018-03-24T06:11:33.690Z,51.37
2018-03-24T06:14:02.596Z,31.47
2018-03-24T06:16:31.604Z,50.03
2018-03-24T06:19:00.667Z,33.73
2018-03-24T06:21:28.865Z,36.83
2018-03-24T06:23:56.991Z,48.60
2018-03-24T06:26:25.102Z,40.63
2018-03-24T06:28:53.264Z,55.47
2018-03-24T06:31:23.280Z,36.30
2018-03-24T06:33:52.198Z,46.27
2018-03-24T06:36:20.340Z,38.77
2018-03-24T06:38:48.463Z,51.33
2018-03-24T06:41:17.497Z,46.03
2018-03-24T06:43:45.673Z,76.23
2018-03-24T06:46:13.829Z,41.33
2018-03-24T06:48:41.940Z,42.33
2018-03-24T06:51:10.100Z,40.60
2018-03-24T06:53:38.990Z,40.73
2018-03-24T06:56:07.097Z,36.03
2018-03-24T06:58:36.143Z,30.27
2018-03-24T07:01:04.264Z,27.83
2018-03-24T07:03:32.541Z,27.23
2018-03-24T07:06:00.669Z,27.60
2018-03-24T07:08:30.727Z,28.13
2018-03-24T07:10:59.202Z,29.33
2018-03-24T07:13:27.393Z,29.90
2018-03-24T07:15:55.530Z,26.80
2018-03-24T07:18:23.648Z,27.77
2018-03-24T07:20:52.025Z,27.93
2018-03-24T07:23:20.182Z,25.07
2018-03-24T07:25:48.316Z,23.50
2018-03-24T07:28:16.467Z,22.30
2018-03-24T07:30:44.602Z,23.47
2018-03-24T07:33:12.848Z,22.10
2018-03-24T07:35:40.948Z,21.93
2018-03-24T07:38:09.848Z,21.97
2018-03-24T07:40:38.717Z,22.43
2018-03-24T07:43:06.830Z,21.43
2018-03-24T07:45:35.733Z,20.60
2018-03-24T07:48:04.760Z,19.70
2018-03-24T07:50:33.655Z,18.13
2018-03-24T07:53:02.564Z,20.27
2018-03-24T07:55:31.430Z,19.67
2018-03-24T07:57:59.614Z,19.93
2018-03-24T08:00:27.806Z,20.60
2018-03-24T08:02:56.150Z,20.27
2018-03-24T08:05:24.320Z,21.60
2018-03-24T08:07:52.445Z,20.63
2018-03-24T08:10:20.616Z,21.30
2018-03-24T08:12:48.786Z,21.03
2018-03-24T08:15:16.918Z,20.20
2018-03-24T08:17:45.073Z,20.73
2018-03-24T08:20:13.238Z,21.97
2018-03-24T08:22:41.346Z,22.73
2018-03-24T08:25:09.458Z,20.70
2018-03-24T08:27:37.578Z,21.53
2018-03-24T08:30:06.440Z,22.50
2018-03-24T08:32:35.633Z,22.37
2018-03-24T08:35:03.788Z,22.67
2018-03-24T08:37:32.736Z,23.43
2018-03-24T08:40:00.912Z,22.97
2018-03-24T08:42:29.132Z,22.63
2018-03-24T08:44:57.300Z,23.57
2018-03-24T08:47:25.445Z,23.37
2018-03-24T08:49:53.616Z,22.77
2018-03-24T08:52:22.518Z,21.97
2018-03-24T08:54:51.562Z,21.90
2018-03-24T08:57:19.670Z,20.47
2018-03-24T08:59:49.720Z,21.53
2018-03-24T09:02:17.817Z,18.80
2018-03-24T09:04:46.760Z,18.57
2018-03-24T09:07:14.907Z,18.63
2018-03-24T09:09:44.152Z,16.27
2018-03-24T09:12:12.268Z,15.23
2018-03-24T09:14:40.583Z,14.40
2018-03-24T09:17:08.780Z,15.23
2018-03-24T09:19:36.985Z,13.10
2018-03-24T09:22:05.863Z,13.40
2018-03-24T09:24:33.995Z,13.13
2018-03-24T09:27:02.136Z,11.90
2018-03-24T09:29:30.292Z,13.27
2018-03-24T09:31:58.560Z,13.60
2018-03-24T09:34:26.769Z,13.13
2018-03-24T09:36:55.217Z,13.17
2018-03-24T09:39:23.343Z,12.60
2018-03-24T09:41:51.495Z,12.63
2018-03-24T09:44:19.636Z,13.30
2018-03-24T09:46:47.791Z,13.37
2018-03-24T09:49:15.941Z,12.17
2018-03-24T09:51:44.082Z,12.67
2018-03-24T09:54:12.237Z,11.93
2018-03-24T09:56:40.350Z,11.60
2018-03-24T09:59:08.530Z,13.40
2018-03-24T10:01:36.685Z,11.43
2018-03-24T10:04:04.896Z,11.70
2018-03-24T10:06:33.065Z,10.57
2018-03-24T10:09:01.198Z,10.37
2018-03-24T10:11:29.325Z,10.67
2018-03-24T10:13:59.130Z,10.57
2018-03-24T10:16:28.133Z,15.97
2018-03-24T10:18:56.328Z,11.20
2018-03-24T10:21:54.670Z,9.97
2018-03-24T10:24:27.656Z,10.47
2018-03-24T10:26:56.068Z,9.63
2018-03-24T10:29:24.207Z,11.33
2018-03-24T10:31:52.602Z,9.67
2018-03-24T10:34:20.804Z,10.60
2018-03-24T10:36:49.008Z,9.80
2018-03-24T10:39:17.139Z,9.00
2018-03-24T10:41:46.121Z,9.50
2018-03-24T10:44:14.512Z,9.30
2018-03-24T10:46:42.711Z,9.37
2018-03-24T10:49:10.957Z,9.07
2018-03-24T10:51:39.997Z,10.43
2018-03-24T10:54:08.102Z,9.53
2018-03-24T10:56:37.022Z,9.53
2018-03-24T10:59:05.132Z,9.57
2018-03-24T11:01:33.327Z,9.97
2018-03-24T11:04:01.480Z,9.43
2018-03-24T11:06:29.625Z,9.70
2018-03-24T11:08:57.806Z,9.57
2018-03-24T11:11:26.122Z,9.67
2018-03-24T11:13:54.403Z,9.63
2018-03-24T11:16:22.646Z,9.87
2018-03-24T11:18:50.780Z,10.33
2018-03-24T11:21:18.943Z,10.23
2018-03-24T11:23:47.096Z,10.30
2018-03-24T11:26:15.192Z,9.63
2018-03-24T11:28:43.394Z,10.00
2018-03-24T11:31:11.541Z,10.20
2018-03-24T11:33:39.684Z,9.43
2018-03-24T11:36:07.857Z,8.87
2018-03-24T11:38:35.949Z,8.97
2018-03-24T11:41:04.116Z,9.83
2018-03-24T11:43:32.321Z,9.63
2018-03-24T11:46:00.482Z,9.33
2018-03-24T11:48:28.608Z,8.63
2018-03-24T11:50:56.704Z,9.37
2018-03-24T11:53:37.402Z,9.40
2018-03-24T11:56:05.534Z,8.60
2018-03-24T11:58:33.711Z,8.43
2018-03-24T12:01:01.847Z,7.97
2018-03-24T12:03:30.893Z,8.50
2018-03-24T12:05:59.082Z,8.57
2018-03-24T12:08:27.277Z,8.60
2018-03-24T12:10:55.406Z,8.83
2018-03-24T12:13:24.332Z,9.00
2018-03-24T12:15:53.398Z,9.40
2018-03-24T12:18:21.564Z,9.13
2018-03-24T12:20:49.735Z,8.93
2018-03-24T12:23:17.947Z,9.00
2018-03-24T12:25:46.084Z,8.60
2018-03-24T12:28:14.216Z,8.77
2018-03-24T12:30:42.351Z,9.30
2018-03-24T12:33:11.211Z,9.33
2018-03-24T12:35:39.390Z,8.87
2018-03-24T12:38:07.529Z,8.97
2018-03-24T12:40:35.689Z,9.00
2018-03-24T12:43:03.828Z,9.00
2018-03-24T12:45:31.942Z,8.33
2018-03-24T12:48:00.177Z,8.63
2018-03-24T12:50:28.283Z,8.60
2018-03-24T12:52:56.419Z,8.17
2018-03-24T12:55:25.359Z,9.87
2018-03-24T12:57:53.544Z,8.47
2018-03-24T13:00:21.649Z,9.47
2018-03-24T13:02:49.853Z,9.13
2018-03-24T13:05:18.032Z,8.03
2018-03-24T13:07:46.182Z,8.90
2018-03-24T13:12:48.193Z,8.83
2018-03-24T13:15:16.335Z,9.63
2018-03-24T13:17:44.472Z,8.60
2018-03-24T13:20:12.588Z,8.50
2018-03-24T13:22:40.726Z,8.67
2018-03-24T13:25:08.873Z,9.30
2018-03-24T13:27:37.060Z,8.97
2018-03-24T13:30:05.217Z,8.67
2018-03-24T13:32:33.324Z,8.30
2018-03-24T13:35:01.537Z,9.33
2018-03-24T13:37:29.673Z,9.13
2018-03-24T13:39:57.800Z,8.50
2018-03-24T13:42:26.724Z,9.00
2018-03-24T13:44:55.671Z,8.37
2018-03-24T13:47:23.785Z,8.77
2018-03-24T13:49:51.907Z,8.27
2018-03-24T13:52:19.982Z,8.77
2018-03-24T13:54:48.868Z,9.23
2018-03-24T13:57:17.828Z,9.00
2018-03-24T13:59:45.956Z,8.80
2018-03-24T14:02:14.254Z,8.70
2018-03-24T14:04:43.173Z,8.43
2018-03-24T14:07:12.152Z,9.53
2018-03-24T14:09:40.344Z,8.90
2018-03-24T14:12:08.445Z,8.67
2018-03-24T14:14:37.296Z,8.80
2018-03-24T14:17:05.405Z,8.87
2018-03-24T14:19:33.616Z,9.53
2018-03-24T14:22:02.525Z,8.70
2018-03-24T14:24:31.436Z,8.37
2018-03-24T14:26:59.579Z,8.47
2018-03-24T14:29:27.803Z,8.77
2018-03-24T14:31:56.704Z,8.07
2018-03-24T14:34:25.680Z,8.70
2018-03-24T14:36:53.827Z,9.03
2018-03-24T14:39:21.946Z,7.93
2018-03-24T14:41:50.106Z,8.47
2018-03-24T14:44:18.204Z,8.23
2018-03-24T14:46:46.328Z,7.80
2018-03-24T14:49:14.492Z,8.70
2018-03-24T14:51:42.597Z,8.47
2018-03-24T14:54:10.800Z,9.07
2018-03-24T14:56:38.970Z,8.30
2018-03-24T14:59:07.851Z,9.47
2018-03-24T15:01:36.072Z,8.87
2018-03-24T15:04:04.987Z,8.13
2018-03-24T15:06:33.295Z,9.67
2018-03-24T15:09:01.455Z,8.60
2018-03-24T15:11:29.806Z,8.30
2018-03-24T15:13:57.916Z,9.27
2018-03-24T15:16:26.803Z,9.07
2018-03-24T15:18:54.934Z,9.73
2018-03-24T15:21:23.119Z,9.60
2018-03-24T15:23:51.297Z,10.10
2018-03-24T15:26:20.248Z,8.80
2018-03-24T15:29:00.198Z,10.63
2018-03-24T15:34:43.858Z,9.63
2018-03-24T15:37:11.922Z,10.07
2018-03-24T15:39:40.742Z,10.33
2018-03-24T15:42:08.818Z,9.87
2018-03-24T15:44:36.881Z,10.97
2018-03-24T15:47:05.723Z,10.33
2018-03-24T15:49:33.781Z,10.10
2018-03-24T15:52:02.619Z,9.67
2018-03-24T15:54:30.662Z,9.77
2018-03-24T15:56:59.488Z,10.63
2018-03-24T15:59:27.577Z,10.43
2018-03-24T16:01:55.813Z,10.70
2018-03-24T16:04:23.806Z,10.10
2018-03-24T16:06:51.872Z,10.60
2018-03-24T16:09:19.929Z,11.10
2018-03-24T16:11:47.979Z,10.93
2018-03-24T16:14:16.035Z,10.47
2018-03-24T16:16:44.093Z,9.70
2018-03-24T16:19:12.155Z,11.60
2018-03-24T16:21:40.246Z,11.50
2018-03-24T16:24:08.307Z,10.67
2018-03-24T16:26:36.358Z,10.93
2018-03-24T16:29:05.187Z,11.80
2018-03-24T16:31:33.251Z,11.77
2018-03-24T16:34:01.303Z,11.87
2018-03-24T16:36:29.386Z,11.40
2018-03-24T16:38:57.444Z,11.30
2018-03-24T16:41:25.502Z,12.70
2018-03-24T16:43:54.394Z,11.43
2018-03-24T16:46:23.247Z,12.20
2018-03-24T16:48:51.317Z,12.80
2018-03-24T16:51:19.408Z,11.87
2018-03-24T16:53:47.463Z,12.00
2018-03-24T16:56:15.521Z,11.60
2018-03-24T16:58:44.361Z,10.90
2018-03-24T17:01:12.516Z,11.60
2018-03-24T17:03:40.614Z,11.40
2018-03-24T17:06:08.674Z,11.53
2018-03-24T17:08:36.730Z,11.10
2018-03-24T17:11:04.792Z,11.83
2018-03-24T17:13:32.857Z,11.40
2018-03-24T17:16:00.916Z,11.80
2018-03-24T17:18:29.751Z,11.10
2018-03-24T17:20:57.810Z,11.33
2018-03-24T17:23:26.642Z,12.70
2018-03-24T17:25:54.695Z,12.00
2018-03-24T17:28:23.519Z,11.13
2018-03-24T17:30:51.581Z,10.97
2018-03-24T17:33:20.404Z,10.80
2018-03-24T17:35:48.472Z,11.43
2018-03-24T17:38:17.308Z,11.53
2018-03-24T17:40:45.367Z,12.10
2018-03-24T17:43:13.453Z,11.27
2018-03-24T17:45:41.504Z,11.43
2018-03-24T17:48:09.571Z,11.10
2018-03-24T17:50:37.638Z,11.87
2018-03-24T17:53:05.708Z,11.60
2018-03-24T17:55:33.784Z,10.77
2018-03-24T17:58:01.836Z,12.00
2018-03-24T18:00:30.665Z,12.33
2018-03-24T18:02:58.724Z,12.10
2018-03-24T18:05:26.789Z,12.17
2018-03-24T18:07:54.861Z,13.10
2018-03-24T18:10:24.878Z,12.63
2018-03-24T18:12:52.851Z,13.30
2018-03-24T18:15:20.906Z,13.03
2018-03-24T18:17:48.975Z,13.00
2018-03-24T18:20:17.803Z,13.00
2018-03-24T18:22:45.855Z,13.57
2018-03-24T18:25:14.697Z,13.40
2018-03-24T18:27:42.758Z,14.47
2018-03-24T18:30:10.843Z,13.60
2018-03-24T18:32:38.899Z,13.40
2018-03-24T18:35:07.757Z,13.50
2018-03-24T18:37:35.793Z,14.57
2018-03-24T18:40:04.626Z,14.43
2018-03-24T18:42:32.688Z,14.60
2018-03-24T18:45:01.520Z,14.60
2018-03-24T18:47:29.577Z,15.03
2018-03-24T18:49:57.663Z,14.57
2018-03-24T18:52:25.717Z,14.03
2018-03-24T18:54:53.780Z,14.27
2018-03-24T18:57:21.829Z,13.07
2018-03-24T18:59:49.896Z,14.93
2018-03-24T19:02:18.748Z,14.37
2018-03-24T19:04:46.840Z,15.23
2018-03-24T19:07:14.904Z,15.87
2018-03-24T19:09:42.969Z,14.37
2018-03-24T19:12:11.044Z,15.37
2018-03-24T19:14:39.129Z,14.83
2018-03-24T19:17:07.192Z,16.23
2018-03-24T19:19:35.284Z,15.70
2018-03-24T19:22:04.102Z,15.50
2018-03-24T19:24:32.186Z,13.70
2018-03-24T19:27:00.252Z,15.93
2018-03-24T19:29:29.074Z,14.63
2018-03-24T19:31:57.137Z,15.40
2018-03-24T19:34:25.990Z,14.97
2018-03-24T19:36:54.067Z,15.57
2018-03-24T19:39:22.142Z,15.97
2018-03-24T19:41:50.179Z,15.93
2018-03-24T19:44:18.248Z,16.47
2018-03-24T19:46:46.310Z,16.07
2018-03-24T19:49:14.375Z,16.20
2018-03-24T19:51:42.438Z,15.67
2018-03-24T19:54:10.494Z,16.77
2018-03-24T19:56:39.333Z,17.07
2018-03-24T19:59:07.467Z,16.60
2018-03-24T20:01:35.536Z,18.10
2018-03-24T20:04:03.592Z,20.47
2018-03-24T20:06:32.427Z,17.23
2018-03-24T20:09:00.475Z,17.90
2018-03-24T20:11:28.551Z,16.40
2018-03-24T20:13:56.597Z,16.63
2018-03-24T20:16:24.699Z,18.37
2018-03-24T20:18:52.714Z,17.20
2018-03-24T20:21:20.780Z,17.60
2018-03-24T20:23:48.843Z,16.93
2018-03-24T20:26:17.674Z,17.30
2018-03-24T20:28:45.777Z,23.20
2018-03-24T20:31:13.946Z,17.73
2018-03-24T20:33:42.921Z,18.47
2018-03-24T20:36:11.753Z,19.13
2018-03-24T20:38:39.803Z,19.27
2018-03-24T20:41:08.637Z,17.37
2018-03-24T20:43:36.693Z,18.20
2018-03-24T20:46:05.524Z,20.70
2018-03-24T20:48:33.598Z,18.47
2018-03-24T20:51:02.408Z,18.93
2018-03-24T20:53:30.478Z,18.67
2018-03-24T20:55:58.543Z,20.50
2018-03-24T20:58:27.377Z,19.00
2018-03-24T21:00:55.443Z,19.03
2018-03-24T21:03:24.280Z,18.13
2018-03-24T21:05:52.344Z,18.37
2018-03-24T21:08:20.428Z,17.90
2018-03-24T21:10:48.476Z,17.50
2018-03-24T21:13:16.551Z,19.03
2018-03-24T21:15:44.588Z,19.40
2018-03-24T21:18:12.652Z,19.23
2018-03-24T21:20:40.703Z,18.47
2018-03-24T21:23:08.771Z,20.97
2018-03-24T21:25:36.843Z,21.70
2018-03-24T21:28:04.900Z,20.27
2018-03-24T21:30:32.959Z,19.87
2018-03-24T21:33:01.027Z,20.63
2018-03-24T21:35:29.073Z,21.90
2018-03-24T21:37:57.145Z,20.47
2018-03-24T21:40:25.201Z,21.30
2018-03-24T21:42:53.288Z,21.27
2018-03-24T21:45:21.341Z,21.63
2018-03-24T21:47:49.397Z,20.20
2018-03-24T21:50:17.452Z,21.93
2018-03-24T21:52:45.534Z,21.43
2018-03-24T21:55:13.585Z,24.27
2018-03-24T21:57:42.414Z,23.03
2018-03-24T22:00:10.487Z,26.03
2018-03-24T22:02:39.312Z,22.97
2018-03-24T22:05:07.388Z,26.40
2018-03-24T22:07:35.453Z,23.73
2018-03-24T22:10:04.333Z,24.97
2018-03-24T22:12:32.424Z,24.20
2018-03-24T22:15:00.495Z,24.10
2018-03-24T22:17:28.574Z,25.90
2018-03-24T22:19:56.645Z,27.23
2018-03-24T22:22:24.710Z,25.43
2018-03-24T22:24:52.787Z,26.43
2018-03-24T22:27:20.850Z,23.87
2018-03-24T22:29:49.682Z,23.83
2018-03-24T22:32:17.736Z,25.07
2018-03-24T22:34:45.807Z,24.33
2018-03-24T22:37:14.648Z,23.70
2018-03-24T22:39:42.767Z,23.47
2018-03-24T22:42:10.787Z,23.53
2018-03-24T22:44:38.859Z,24.40
2018-03-24T22:47:07.683Z,26.30
2018-03-24T22:49:35.765Z,24.10
2018-03-24T22:52:04.587Z,25.83
2018-03-24T22:54:32.665Z,26.83
2018-03-24T22:57:00.734Z,24.27
2018-03-24T22:59:28.799Z,26.40
2018-03-24T23:01:57.631Z,25.67
2018-03-24T23:04:25.693Z,26.93
2018-03-24T23:06:54.536Z,24.87
2018-03-24T23:09:22.609Z,23.57
2018-03-24T23:11:50.678Z,26.20
2018-03-24T23:14:18.748Z,24.63
2018-03-24T23:16:46.812Z,27.20
2018-03-24T23:19:14.872Z,26.83
2018-03-24T23:21:42.948Z,30.30
2018-03-24T23:24:11.012Z,27.37
2018-03-24T23:26:39.093Z,26.97
2018-03-24T23:29:07.173Z,34.77
2018-03-24T23:31:35.241Z,31.60
2018-03-24T23:34:04.067Z,34.07
2018-03-24T23:36:32.146Z,38.43
2018-03-24T23:39:00.209Z,38.60
2018-03-24T23:41:28.285Z,39.23
2018-03-24T23:43:57.118Z,38.17
2018-03-24T23:46:25.197Z,37.87
2018-03-24T23:48:53.263Z,38.40
2018-03-24T23:51:21.340Z,38.10
2018-03-24T23:53:50.176Z,35.27
2018-03-24T23:56:18.244Z,29.07
2018-03-24T23:58:46.308Z,31.37
